sensor_id;sensor_type;location;lat;lon;timestamp;P1;durP1;ratioP1;P2;durP2;ratioP2
41512;SDS011;27244;59.940;30.280;2023-05-10T00:00:09;8.98;;;4.07;;
41512;SDS011;27244;59.940;30.280;2023-05-10T00:02:40;9.75;;;4.50;;
41512;SDS011;27244;59.940;30.280;2023-05-10T00:05:07;7.70;;;3.90;;
41512;SDS011;27244;59.940;30.280;2023-05-10T00:07:34;5.57;;;3.83;;
41512;SDS011;27244;59.940;30.280;2023-05-10T00:10:02;6.43;;;3.72;;
41512;SDS011;27244;59.940;30.280;2023-05-10T00:12:30;8.02;;;4.50;;
41512;SDS011;27244;59.940;30.280;2023-05-10T00:14:56;6.57;;;3.67;;
41512;SDS011;27244;59.940;30.280;2023-05-10T00:17:23;9.30;;;4.07;;
41512;SDS011;27244;59.940;30.280;2023-05-10T00:19:50;7.95;;;4.20;;
41512;SDS011;27244;59.940;30.280;2023-05-10T00:22:17;6.70;;;3.80;;
41512;SDS011;27244;59.940;30.280;2023-05-10T00:24:44;7.13;;;3.47;;
41512;SDS011;27244;59.940;30.280;2023-05-10T00:27:12;9.68;;;3.78;;
41512;SDS011;27244;59.940;30.280;2023-05-10T00:29:39;7.50;;;3.55;;
41512;SDS011;27244;59.940;30.280;2023-05-10T00:32:07;6.93;;;3.80;;
41512;SDS011;27244;59.940;30.280;2023-05-10T00:34:34;7.43;;;3.60;;
41512;SDS011;27244;59.940;30.280;2023-05-10T00:37:01;8.70;;;3.38;;
41512;SDS011;27244;59.940;30.280;2023-05-10T00:39:28;6.47;;;3.38;;
41512;SDS011;27244;59.940;30.280;2023-05-10T00:41:55;9.13;;;3.35;;
41512;SDS011;27244;59.940;30.280;2023-05-10T00:44:23;4.75;;;3.00;;
41512;SDS011;27244;59.940;30.280;2023-05-10T00:46:50;4.70;;;2.95;;
41512;SDS011;27244;59.940;30.280;2023-05-10T00:49:18;4.38;;;2.80;;
41512;SDS011;27244;59.940;30.280;2023-05-10T00:51:45;4.97;;;2.92;;
41512;SDS011;27244;59.940;30.280;2023-05-10T00:54:14;5.75;;;3.10;;
41512;SDS011;27244;59.940;30.280;2023-05-10T00:56:41;5.50;;;2.80;;
41512;SDS011;27244;59.940;30.280;2023-05-10T00:59:14;4.32;;;3.25;;
41512;SDS011;27244;59.940;30.280;2023-05-10T01:01:45;6.85;;;3.30;;
41512;SDS011;27244;59.940;30.280;2023-05-10T01:04:13;6.35;;;2.97;;
41512;SDS011;27244;59.940;30.280;2023-05-10T01:06:41;7.85;;;2.90;;
41512;SDS011;27244;59.940;30.280;2023-05-10T01:09:08;6.10;;;3.17;;
41512;SDS011;27244;59.940;30.280;2023-05-10T01:11:35;5.22;;;2.95;;
41512;SDS011;27244;59.940;30.280;2023-05-10T01:14:04;5.05;;;2.83;;
41512;SDS011;27244;59.940;30.280;2023-05-10T01:16:33;5.07;;;2.58;;
41512;SDS011;27244;59.940;30.280;2023-05-10T01:19:08;3.90;;;2.63;;
41512;SDS011;27244;59.940;30.280;2023-05-10T01:21:43;10.48;;;3.03;;
41512;SDS011;27244;59.940;30.280;2023-05-10T01:24:31;4.80;;;2.55;;
41512;SDS011;27244;59.940;30.280;2023-05-10T01:27:37;5.80;;;2.70;;
41512;SDS011;27244;59.940;30.280;2023-05-10T01:33:37;3.42;;;2.30;;
41512;SDS011;27244;59.940;30.280;2023-05-10T01:36:12;6.55;;;2.63;;
41512;SDS011;27244;59.940;30.280;2023-05-10T01:38:45;4.10;;;2.50;;
41512;SDS011;27244;59.940;30.280;2023-05-10T01:41:17;4.15;;;2.60;;
41512;SDS011;27244;59.940;30.280;2023-05-10T01:43:50;4.25;;;2.40;;
41512;SDS011;27244;59.940;30.280;2023-05-10T01:46:25;5.13;;;2.65;;
41512;SDS011;27244;59.940;30.280;2023-05-10T01:48:57;3.85;;;2.47;;
41512;SDS011;27244;59.940;30.280;2023-05-10T01:51:27;3.85;;;2.22;;
41512;SDS011;27244;59.940;30.280;2023-05-10T01:54:02;3.95;;;2.13;;
41512;SDS011;27244;59.940;30.280;2023-05-10T01:56:32;3.55;;;2.30;;
41512;SDS011;27244;59.940;30.280;2023-05-10T01:59:02;4.53;;;2.40;;
41512;SDS011;27244;59.940;30.280;2023-05-10T02:01:35;6.35;;;2.20;;
41512;SDS011;27244;59.940;30.280;2023-05-10T02:04:05;3.88;;;2.30;;
41512;SDS011;27244;59.940;30.280;2023-05-10T02:06:34;3.40;;;2.20;;
41512;SDS011;27244;59.940;30.280;2023-05-10T02:09:01;3.42;;;2.40;;
41512;SDS011;27244;59.940;30.280;2023-05-10T02:11:30;4.13;;;2.60;;
41512;SDS011;27244;59.940;30.280;2023-05-10T02:13:58;3.05;;;2.20;;
41512;SDS011;27244;59.940;30.280;2023-05-10T02:16:27;3.38;;;2.25;;
41512;SDS011;27244;59.940;30.280;2023-05-10T02:18:55;3.30;;;2.28;;
41512;SDS011;27244;59.940;30.280;2023-05-10T02:21:27;3.92;;;2.28;;
41512;SDS011;27244;59.940;30.280;2023-05-10T02:23:54;3.50;;;2.42;;
41512;SDS011;27244;59.940;30.280;2023-05-10T02:26:23;3.47;;;2.30;;
41512;SDS011;27244;59.940;30.280;2023-05-10T02:28:51;2.88;;;2.40;;
41512;SDS011;27244;59.940;30.280;2023-05-10T02:31:20;4.45;;;2.42;;
41512;SDS011;27244;59.940;30.280;2023-05-10T02:33:48;2.75;;;2.05;;
41512;SDS011;27244;59.940;30.280;2023-05-10T02:36:17;4.93;;;2.30;;
41512;SDS011;27244;59.940;30.280;2023-05-10T02:38:48;3.28;;;2.08;;
41512;SDS011;27244;59.940;30.280;2023-05-10T02:41:16;2.80;;;2.22;;
41512;SDS011;27244;59.940;30.280;2023-05-10T02:43:47;3.10;;;2.03;;
41512;SDS011;27244;59.940;30.280;2023-05-10T02:46:17;2.63;;;1.80;;
41512;SDS011;27244;59.940;30.280;2023-05-10T02:48:44;3.03;;;2.10;;
41512;SDS011;27244;59.940;30.280;2023-05-10T02:51:11;3.67;;;2.63;;
41512;SDS011;27244;59.940;30.280;2023-05-10T02:53:44;4.68;;;2.50;;
41512;SDS011;27244;59.940;30.280;2023-05-10T02:56:17;9.68;;;3.53;;
41512;SDS011;27244;59.940;30.280;2023-05-10T02:58:50;8.20;;;3.13;;
41512;SDS011;27244;59.940;30.280;2023-05-10T03:01:18;7.03;;;3.17;;
41512;SDS011;27244;59.940;30.280;2023-05-10T03:03:47;8.60;;;2.85;;
41512;SDS011;27244;59.940;30.280;2023-05-10T03:06:14;6.60;;;3.25;;
41512;SDS011;27244;59.940;30.280;2023-05-10T03:08:42;6.82;;;3.47;;
41512;SDS011;27244;59.940;30.280;2023-05-10T03:11:26;6.53;;;3.70;;
41512;SDS011;27244;59.940;30.280;2023-05-10T03:14:06;8.13;;;4.03;;
41512;SDS011;27244;59.940;30.280;2023-05-10T03:16:41;9.10;;;3.90;;
41512;SDS011;27244;59.940;30.280;2023-05-10T03:19:14;9.35;;;3.95;;
41512;SDS011;27244;59.940;30.280;2023-05-10T03:21:45;10.25;;;4.88;;
41512;SDS011;27244;59.940;30.280;2023-05-10T03:24:18;7.78;;;4.25;;
41512;SDS011;27244;59.940;30.280;2023-05-10T03:26:49;7.30;;;4.53;;
41512;SDS011;27244;59.940;30.280;2023-05-10T03:29:19;7.55;;;4.45;;
41512;SDS011;27244;59.940;30.280;2023-05-10T03:31:47;8.88;;;4.55;;
41512;SDS011;27244;59.940;30.280;2023-05-10T03:34:14;8.77;;;4.47;;
41512;SDS011;27244;59.940;30.280;2023-05-10T03:36:42;8.50;;;4.55;;
41512;SDS011;27244;59.940;30.280;2023-05-10T03:39:09;11.25;;;5.32;;
41512;SDS011;27244;59.940;30.280;2023-05-10T03:41:36;8.77;;;5.18;;
41512;SDS011;27244;59.940;30.280;2023-05-10T03:44:05;9.48;;;5.35;;
41512;SDS011;27244;59.940;30.280;2023-05-10T03:46:32;8.50;;;5.20;;
41512;SDS011;27244;59.940;30.280;2023-05-10T03:48:59;9.88;;;5.07;;
41512;SDS011;27244;59.940;30.280;2023-05-10T03:51:26;9.90;;;5.28;;
41512;SDS011;27244;59.940;30.280;2023-05-10T03:53:53;8.60;;;5.03;;
41512;SDS011;27244;59.940;30.280;2023-05-10T03:56:21;9.82;;;5.18;;
41512;SDS011;27244;59.940;30.280;2023-05-10T03:58:48;9.20;;;5.60;;
41512;SDS011;27244;59.940;30.280;2023-05-10T04:01:16;9.38;;;4.80;;
41512;SDS011;27244;59.940;30.280;2023-05-10T04:03:43;8.35;;;5.10;;
41512;SDS011;27244;59.940;30.280;2023-05-10T04:06:11;7.80;;;4.65;;
41512;SDS011;27244;59.940;30.280;2023-05-10T04:08:38;7.80;;;5.40;;
41512;SDS011;27244;59.940;30.280;2023-05-10T04:11:05;10.80;;;5.22;;
41512;SDS011;27244;59.940;30.280;2023-05-10T04:13:32;8.15;;;5.18;;
41512;SDS011;27244;59.940;30.280;2023-05-10T04:16:00;9.55;;;4.90;;
41512;SDS011;27244;59.940;30.280;2023-05-10T04:18:28;8.00;;;5.28;;
41512;SDS011;27244;59.940;30.280;2023-05-10T04:20:55;9.50;;;5.32;;
41512;SDS011;27244;59.940;30.280;2023-05-10T04:23:22;8.07;;;5.13;;
41512;SDS011;27244;59.940;30.280;2023-05-10T04:25:49;9.68;;;5.38;;
41512;SDS011;27244;59.940;30.280;2023-05-10T04:28:15;7.90;;;4.97;;
41512;SDS011;27244;59.940;30.280;2023-05-10T04:30:42;9.05;;;5.28;;
41512;SDS011;27244;59.940;30.280;2023-05-10T04:33:09;7.97;;;5.10;;
41512;SDS011;27244;59.940;30.280;2023-05-10T04:35:38;7.68;;;4.88;;
41512;SDS011;27244;59.940;30.280;2023-05-10T04:38:05;9.35;;;4.90;;
41512;SDS011;27244;59.940;30.280;2023-05-10T04:40:32;8.10;;;4.95;;
41512;SDS011;27244;59.940;30.280;2023-05-10T04:42:59;6.35;;;4.75;;
41512;SDS011;27244;59.940;30.280;2023-05-10T04:45:26;7.57;;;5.18;;
41512;SDS011;27244;59.940;30.280;2023-05-10T04:47:53;7.68;;;4.40;;
41512;SDS011;27244;59.940;30.280;2023-05-10T04:50:20;6.78;;;4.70;;
41512;SDS011;27244;59.940;30.280;2023-05-10T04:52:48;7.97;;;4.13;;
41512;SDS011;27244;59.940;30.280;2023-05-10T04:55:15;6.63;;;4.47;;
41512;SDS011;27244;59.940;30.280;2023-05-10T04:57:42;8.57;;;5.18;;
41512;SDS011;27244;59.940;30.280;2023-05-10T05:00:10;5.15;;;4.07;;
41512;SDS011;27244;59.940;30.280;2023-05-10T05:02:38;6.88;;;4.32;;
41512;SDS011;27244;59.940;30.280;2023-05-10T05:05:05;8.02;;;4.70;;
41512;SDS011;27244;59.940;30.280;2023-05-10T05:07:32;5.65;;;3.90;;
41512;SDS011;27244;59.940;30.280;2023-05-10T05:10:01;5.78;;;3.90;;
41512;SDS011;27244;59.940;30.280;2023-05-10T05:12:28;6.72;;;4.05;;
41512;SDS011;27244;59.940;30.280;2023-05-10T05:14:55;8.20;;;4.22;;
41512;SDS011;27244;59.940;30.280;2023-05-10T05:17:22;6.68;;;3.47;;
41512;SDS011;27244;59.940;30.280;2023-05-10T05:19:49;6.18;;;3.80;;
41512;SDS011;27244;59.940;30.280;2023-05-10T05:22:15;4.90;;;3.45;;
41512;SDS011;27244;59.940;30.280;2023-05-10T05:24:42;5.60;;;3.88;;
41512;SDS011;27244;59.940;30.280;2023-05-10T05:27:11;5.88;;;3.33;;
41512;SDS011;27244;59.940;30.280;2023-05-10T05:29:38;4.75;;;3.65;;
41512;SDS011;27244;59.940;30.280;2023-05-10T05:32:17;7.10;;;4.30;;
41512;SDS011;27244;59.940;30.280;2023-05-10T05:34:44;7.78;;;3.58;;
41512;SDS011;27244;59.940;30.280;2023-05-10T05:37:12;6.00;;;3.67;;
41512;SDS011;27244;59.940;30.280;2023-05-10T05:39:40;7.03;;;3.60;;
41512;SDS011;27244;59.940;30.280;2023-05-10T05:42:07;5.28;;;3.45;;
41512;SDS011;27244;59.940;30.280;2023-05-10T05:44:36;4.93;;;3.03;;
41512;SDS011;27244;59.940;30.280;2023-05-10T05:47:03;6.70;;;3.25;;
41512;SDS011;27244;59.940;30.280;2023-05-10T05:49:30;10.07;;;3.97;;
41512;SDS011;27244;59.940;30.280;2023-05-10T05:51:58;4.90;;;3.28;;
41512;SDS011;27244;59.940;30.280;2023-05-10T05:54:25;5.53;;;3.30;;
41512;SDS011;27244;59.940;30.280;2023-05-10T05:56:53;8.18;;;3.47;;
41512;SDS011;27244;59.940;30.280;2023-05-10T05:59:20;4.40;;;3.17;;
41512;SDS011;27244;59.940;30.280;2023-05-10T06:01:49;6.40;;;3.45;;
41512;SDS011;27244;59.940;30.280;2023-05-10T06:04:16;6.68;;;3.08;;
41512;SDS011;27244;59.940;30.280;2023-05-10T06:06:44;5.03;;;3.20;;
41512;SDS011;27244;59.940;30.280;2023-05-10T06:09:11;6.80;;;3.10;;
41512;SDS011;27244;59.940;30.280;2023-05-10T06:11:38;5.90;;;2.83;;
41512;SDS011;27244;59.940;30.280;2023-05-10T06:14:04;5.57;;;2.78;;
41512;SDS011;27244;59.940;30.280;2023-05-10T06:16:33;3.50;;;2.60;;
41512;SDS011;27244;59.940;30.280;2023-05-10T06:19:01;5.68;;;2.75;;
41512;SDS011;27244;59.940;30.280;2023-05-10T06:21:28;3.90;;;3.08;;
41512;SDS011;27244;59.940;30.280;2023-05-10T06:23:55;6.47;;;2.75;;
41512;SDS011;27244;59.940;30.280;2023-05-10T06:26:22;3.58;;;2.50;;
41512;SDS011;27244;59.940;30.280;2023-05-10T06:28:50;2.83;;;2.17;;
41512;SDS011;27244;59.940;30.280;2023-05-10T06:31:17;6.78;;;2.70;;
41512;SDS011;27244;59.940;30.280;2023-05-10T06:33:46;7.90;;;2.63;;
41512;SDS011;27244;59.940;30.280;2023-05-10T06:36:14;9.55;;;2.72;;
41512;SDS011;27244;59.940;30.280;2023-05-10T06:38:41;5.47;;;2.50;;
41512;SDS011;27244;59.940;30.280;2023-05-10T06:41:08;7.60;;;3.20;;
41512;SDS011;27244;59.940;30.280;2023-05-10T06:43:35;4.97;;;2.63;;
41512;SDS011;27244;59.940;30.280;2023-05-10T06:46:05;3.67;;;2.50;;
41512;SDS011;27244;59.940;30.280;2023-05-10T06:48:32;6.93;;;2.78;;
41512;SDS011;27244;59.940;30.280;2023-05-10T06:50:59;4.95;;;2.30;;
41512;SDS011;27244;59.940;30.280;2023-05-10T06:53:28;6.15;;;2.50;;
41512;SDS011;27244;59.940;30.280;2023-05-10T06:55:55;4.57;;;2.42;;
41512;SDS011;27244;59.940;30.280;2023-05-10T06:58:22;8.85;;;2.25;;
41512;SDS011;27244;59.940;30.280;2023-05-10T07:00:49;4.22;;;2.50;;
41512;SDS011;27244;59.940;30.280;2023-05-10T07:03:15;4.45;;;2.83;;
41512;SDS011;27244;59.940;30.280;2023-05-10T07:05:42;3.50;;;2.25;;
41512;SDS011;27244;59.940;30.280;2023-05-10T07:08:09;3.20;;;2.20;;
41512;SDS011;27244;59.940;30.280;2023-05-10T07:10:37;3.70;;;2.22;;
41512;SDS011;27244;59.940;30.280;2023-05-10T07:13:04;3.95;;;2.40;;
41512;SDS011;27244;59.940;30.280;2023-05-10T07:15:31;6.72;;;2.38;;
41512;SDS011;27244;59.940;30.280;2023-05-10T07:17:58;3.20;;;2.17;;
41512;SDS011;27244;59.940;30.280;2023-05-10T07:20:25;4.90;;;2.47;;
41512;SDS011;27244;59.940;30.280;2023-05-10T07:22:52;4.32;;;2.33;;
41512;SDS011;27244;59.940;30.280;2023-05-10T07:25:19;5.60;;;2.65;;
41512;SDS011;27244;59.940;30.280;2023-05-10T07:27:47;4.78;;;2.25;;
41512;SDS011;27244;59.940;30.280;2023-05-10T07:30:14;3.63;;;1.88;;
41512;SDS011;27244;59.940;30.280;2023-05-10T07:32:41;3.40;;;1.90;;
41512;SDS011;27244;59.940;30.280;2023-05-10T07:35:08;3.45;;;1.88;;
41512;SDS011;27244;59.940;30.280;2023-05-10T07:37:36;3.17;;;2.33;;
41512;SDS011;27244;59.940;30.280;2023-05-10T07:40:03;2.92;;;1.83;;
41512;SDS011;27244;59.940;30.280;2023-05-10T07:42:31;2.70;;;1.70;;
41512;SDS011;27244;59.940;30.280;2023-05-10T07:44:59;3.63;;;1.80;;
41512;SDS011;27244;59.940;30.280;2023-05-10T07:47:26;3.17;;;1.95;;
41512;SDS011;27244;59.940;30.280;2023-05-10T07:49:53;3.47;;;1.70;;
41512;SDS011;27244;59.940;30.280;2023-05-10T07:52:20;3.78;;;1.70;;
41512;SDS011;27244;59.940;30.280;2023-05-10T07:54:47;2.33;;;1.85;;
41512;SDS011;27244;59.940;30.280;2023-05-10T07:57:14;2.25;;;1.90;;
41512;SDS011;27244;59.940;30.280;2023-05-10T07:59:42;3.25;;;1.92;;
41512;SDS011;27244;59.940;30.280;2023-05-10T08:02:11;4.05;;;1.90;;
41512;SDS011;27244;59.940;30.280;2023-05-10T08:04:38;2.35;;;1.70;;
41512;SDS011;27244;59.940;30.280;2023-05-10T08:07:05;2.92;;;1.67;;
41512;SDS011;27244;59.940;30.280;2023-05-10T08:09:32;2.42;;;1.73;;
41512;SDS011;27244;59.940;30.280;2023-05-10T08:11:59;2.28;;;1.77;;
41512;SDS011;27244;59.940;30.280;2023-05-10T08:14:27;2.17;;;1.73;;
41512;SDS011;27244;59.940;30.280;2023-05-10T08:16:54;2.45;;;1.95;;
41512;SDS011;27244;59.940;30.280;2023-05-10T08:19:23;3.40;;;1.77;;
41512;SDS011;27244;59.940;30.280;2023-05-10T08:21:50;2.75;;;1.70;;
41512;SDS011;27244;59.940;30.280;2023-05-10T08:24:17;2.72;;;1.75;;
41512;SDS011;27244;59.940;30.280;2023-05-10T08:26:44;2.13;;;1.60;;
41512;SDS011;27244;59.940;30.280;2023-05-10T08:29:11;2.60;;;1.85;;
41512;SDS011;27244;59.940;30.280;2023-05-10T08:31:38;1.90;;;1.52;;
41512;SDS011;27244;59.940;30.280;2023-05-10T08:34:04;4.35;;;1.65;;
41512;SDS011;27244;59.940;30.280;2023-05-10T08:36:33;3.33;;;1.80;;
41512;SDS011;27244;59.940;30.280;2023-05-10T08:39:00;2.30;;;1.60;;
41512;SDS011;27244;59.940;30.280;2023-05-10T08:41:27;2.97;;;1.60;;
41512;SDS011;27244;59.940;30.280;2023-05-10T08:43:54;2.70;;;1.75;;
41512;SDS011;27244;59.940;30.280;2023-05-10T08:46:22;2.03;;;1.63;;
41512;SDS011;27244;59.940;30.280;2023-05-10T08:48:50;1.85;;;1.45;;
41512;SDS011;27244;59.940;30.280;2023-05-10T08:51:18;3.45;;;1.30;;
41512;SDS011;27244;59.940;30.280;2023-05-10T08:56:17;3.03;;;1.60;;
41512;SDS011;27244;59.940;30.280;2023-05-10T08:58:45;1.65;;;1.48;;
41512;SDS011;27244;59.940;30.280;2023-05-10T09:01:12;1.92;;;1.50;;
41512;SDS011;27244;59.940;30.280;2023-05-10T09:03:41;2.00;;;1.50;;
41512;SDS011;27244;59.940;30.280;2023-05-10T09:06:08;2.25;;;1.40;;
41512;SDS011;27244;59.940;30.280;2023-05-10T09:08:35;1.70;;;1.35;;
41512;SDS011;27244;59.940;30.280;2023-05-10T09:11:05;2.10;;;1.50;;
41512;SDS011;27244;59.940;30.280;2023-05-10T09:13:32;1.90;;;1.60;;
41512;SDS011;27244;59.940;30.280;2023-05-10T09:15:59;1.95;;;1.30;;
41512;SDS011;27244;59.940;30.280;2023-05-10T09:18:27;2.45;;;1.50;;
41512;SDS011;27244;59.940;30.280;2023-05-10T09:20:54;1.80;;;1.20;;
41512;SDS011;27244;59.940;30.280;2023-05-10T09:23:21;1.75;;;1.25;;
41512;SDS011;27244;59.940;30.280;2023-05-10T09:25:48;2.10;;;1.30;;
41512;SDS011;27244;59.940;30.280;2023-05-10T09:28:32;1.48;;;1.27;;
41512;SDS011;27244;59.940;30.280;2023-05-10T09:30:59;1.63;;;1.13;;
41512;SDS011;27244;59.940;30.280;2023-05-10T09:33:26;2.20;;;1.10;;
41512;SDS011;27244;59.940;30.280;2023-05-10T09:35:53;2.13;;;1.30;;
41512;SDS011;27244;59.940;30.280;2023-05-10T09:38:20;1.23;;;1.13;;
41512;SDS011;27244;59.940;30.280;2023-05-10T09:40:50;2.05;;;1.20;;
41512;SDS011;27244;59.940;30.280;2023-05-10T09:43:19;1.85;;;1.30;;
41512;SDS011;27244;59.940;30.280;2023-05-10T09:45:49;1.48;;;1.13;;
41512;SDS011;27244;59.940;30.280;2023-05-10T09:48:15;1.88;;;1.20;;
41512;SDS011;27244;59.940;30.280;2023-05-10T09:50:42;1.73;;;1.45;;
41512;SDS011;27244;59.940;30.280;2023-05-10T09:53:09;1.60;;;1.13;;
41512;SDS011;27244;59.940;30.280;2023-05-10T09:55:41;1.33;;;1.00;;
41512;SDS011;27244;59.940;30.280;2023-05-10T09:58:09;1.25;;;1.05;;
41512;SDS011;27244;59.940;30.280;2023-05-10T10:00:37;2.20;;;1.40;;
41512;SDS011;27244;59.940;30.280;2023-05-10T10:03:11;1.20;;;1.10;;
41512;SDS011;27244;59.940;30.280;2023-05-10T10:05:40;1.80;;;1.17;;
41512;SDS011;27244;59.940;30.280;2023-05-10T10:08:07;2.30;;;1.38;;
41512;SDS011;27244;59.940;30.280;2023-05-10T10:10:35;1.60;;;1.23;;
41512;SDS011;27244;59.940;30.280;2023-05-10T10:13:02;1.80;;;1.23;;
41512;SDS011;27244;59.940;30.280;2023-05-10T10:15:30;1.95;;;1.20;;
41512;SDS011;27244;59.940;30.280;2023-05-10T10:17:57;1.50;;;1.10;;
41512;SDS011;27244;59.940;30.280;2023-05-10T10:20:27;1.45;;;1.08;;
41512;SDS011;27244;59.940;30.280;2023-05-10T10:22:54;2.30;;;1.27;;
41512;SDS011;27244;59.940;30.280;2023-05-10T10:25:21;1.17;;;0.93;;
41512;SDS011;27244;59.940;30.280;2023-05-10T10:27:53;4.30;;;1.30;;
41512;SDS011;27244;59.940;30.280;2023-05-10T10:30:31;1.75;;;1.17;;
41512;SDS011;27244;59.940;30.280;2023-05-10T10:36:07;3.25;;;0.90;;
41512;SDS011;27244;59.940;30.280;2023-05-10T10:41:28;2.53;;;0.82;;
41512;SDS011;27244;59.940;30.280;2023-05-10T10:46:59;2.88;;;1.10;;
41512;SDS011;27244;59.940;30.280;2023-05-10T10:54:57;1.48;;;0.90;;
41512;SDS011;27244;59.940;30.280;2023-05-10T10:57:26;1.70;;;1.00;;
41512;SDS011;27244;59.940;30.280;2023-05-10T11:02:45;3.35;;;1.10;;
41512;SDS011;27244;59.940;30.280;2023-05-10T11:05:24;4.82;;;0.90;;
41512;SDS011;27244;59.940;30.280;2023-05-10T11:08:06;1.83;;;1.00;;
41512;SDS011;27244;59.940;30.280;2023-05-10T11:10:34;1.63;;;1.00;;
41512;SDS011;27244;59.940;30.280;2023-05-10T11:13:02;1.42;;;0.90;;
41512;SDS011;27244;59.940;30.280;2023-05-10T11:15:30;2.35;;;1.00;;
41512;SDS011;27244;59.940;30.280;2023-05-10T11:17:58;1.73;;;1.13;;
41512;SDS011;27244;59.940;30.280;2023-05-10T11:20:27;1.00;;;0.88;;
41512;SDS011;27244;59.940;30.280;2023-05-10T11:23:10;1.35;;;1.02;;
41512;SDS011;27244;59.940;30.280;2023-05-10T11:25:41;1.77;;;0.85;;
41512;SDS011;27244;59.940;30.280;2023-05-10T11:28:10;1.20;;;0.98;;
41512;SDS011;27244;59.940;30.280;2023-05-10T11:30:38;1.10;;;0.80;;
41512;SDS011;27244;59.940;30.280;2023-05-10T11:33:05;0.90;;;0.77;;
41512;SDS011;27244;59.940;30.280;2023-05-10T11:35:36;2.15;;;0.82;;
41512;SDS011;27244;59.940;30.280;2023-05-10T11:38:05;2.88;;;1.02;;
41512;SDS011;27244;59.940;30.280;2023-05-10T11:40:34;2.65;;;1.10;;
41512;SDS011;27244;59.940;30.280;2023-05-10T11:43:02;1.58;;;1.00;;
41512;SDS011;27244;59.940;30.280;2023-05-10T11:45:30;4.63;;;1.20;;
41512;SDS011;27244;59.940;30.280;2023-05-10T11:47:58;4.88;;;1.00;;
41512;SDS011;27244;59.940;30.280;2023-05-10T11:50:26;5.60;;;0.90;;
41512;SDS011;27244;59.940;30.280;2023-05-10T11:52:54;2.05;;;0.90;;
41512;SDS011;27244;59.940;30.280;2023-05-10T11:55:22;2.20;;;0.80;;
41512;SDS011;27244;59.940;30.280;2023-05-10T11:57:53;5.50;;;0.80;;
41512;SDS011;27244;59.940;30.280;2023-05-10T12:00:20;3.47;;;0.90;;
41512;SDS011;27244;59.940;30.280;2023-05-10T12:02:47;2.90;;;0.80;;
41512;SDS011;27244;59.940;30.280;2023-05-10T12:05:15;2.42;;;1.10;;
41512;SDS011;27244;59.940;30.280;2023-05-10T12:07:42;2.30;;;1.00;;
41512;SDS011;27244;59.940;30.280;2023-05-10T12:10:09;1.88;;;0.98;;
41512;SDS011;27244;59.940;30.280;2023-05-10T12:12:39;1.42;;;0.63;;
41512;SDS011;27244;59.940;30.280;2023-05-10T12:15:16;1.40;;;0.90;;
41512;SDS011;27244;59.940;30.280;2023-05-10T12:17:45;1.25;;;0.90;;
41512;SDS011;27244;59.940;30.280;2023-05-10T12:20:13;1.48;;;0.88;;
41512;SDS011;27244;59.940;30.280;2023-05-10T12:22:43;2.70;;;0.80;;
41512;SDS011;27244;59.940;30.280;2023-05-10T12:25:10;1.27;;;0.90;;
41512;SDS011;27244;59.940;30.280;2023-05-10T12:27:37;1.52;;;1.08;;
41512;SDS011;27244;59.940;30.280;2023-05-10T12:30:05;2.50;;;0.80;;
41512;SDS011;27244;59.940;30.280;2023-05-10T12:32:41;1.73;;;1.15;;
41512;SDS011;27244;59.940;30.280;2023-05-10T12:35:08;1.75;;;1.08;;
41512;SDS011;27244;59.940;30.280;2023-05-10T12:37:35;1.98;;;1.00;;
41512;SDS011;27244;59.940;30.280;2023-05-10T12:40:07;1.75;;;1.33;;
41512;SDS011;27244;59.940;30.280;2023-05-10T12:42:36;1.92;;;1.13;;
41512;SDS011;27244;59.940;30.280;2023-05-10T12:45:04;2.13;;;1.30;;
41512;SDS011;27244;59.940;30.280;2023-05-10T12:47:32;3.78;;;1.25;;
41512;SDS011;27244;59.940;30.280;2023-05-10T12:50:01;3.17;;;1.67;;
41512;SDS011;27244;59.940;30.280;2023-05-10T12:52:30;3.65;;;1.40;;
41512;SDS011;27244;59.940;30.280;2023-05-10T12:54:58;4.65;;;1.90;;
41512;SDS011;27244;59.940;30.280;2023-05-10T12:57:27;2.85;;;1.58;;
41512;SDS011;27244;59.940;30.280;2023-05-10T12:59:54;3.47;;;1.65;;
41512;SDS011;27244;59.940;30.280;2023-05-10T13:02:21;3.28;;;1.48;;
41512;SDS011;27244;59.940;30.280;2023-05-10T13:04:48;2.58;;;1.40;;
41512;SDS011;27244;59.940;30.280;2023-05-10T13:07:26;4.43;;;2.10;;
41512;SDS011;27244;59.940;30.280;2023-05-10T13:09:53;4.25;;;1.45;;
41512;SDS011;27244;59.940;30.280;2023-05-10T13:12:20;3.17;;;1.80;;
41512;SDS011;27244;59.940;30.280;2023-05-10T13:14:47;7.43;;;2.05;;
41512;SDS011;27244;59.940;30.280;2023-05-10T13:17:13;5.60;;;1.95;;
41512;SDS011;27244;59.940;30.280;2023-05-10T13:19:40;3.22;;;2.00;;
41512;SDS011;27244;59.940;30.280;2023-05-10T13:22:08;2.95;;;1.88;;
41512;SDS011;27244;59.940;30.280;2023-05-10T13:24:36;2.88;;;1.67;;
41512;SDS011;27244;59.940;30.280;2023-05-10T13:27:03;3.17;;;1.73;;
41512;SDS011;27244;59.940;30.280;2023-05-10T13:29:30;3.30;;;1.52;;
41512;SDS011;27244;59.940;30.280;2023-05-10T13:31:57;5.55;;;1.83;;
41512;SDS011;27244;59.940;30.280;2023-05-10T13:34:25;3.03;;;1.60;;
41512;SDS011;27244;59.940;30.280;2023-05-10T13:36:52;3.70;;;1.60;;
41512;SDS011;27244;59.940;30.280;2023-05-10T13:39:23;3.75;;;1.80;;
41512;SDS011;27244;59.940;30.280;2023-05-10T13:41:51;4.40;;;1.70;;
41512;SDS011;27244;59.940;30.280;2023-05-10T13:44:19;4.65;;;2.30;;
41512;SDS011;27244;59.940;30.280;2023-05-10T13:46:46;2.83;;;1.70;;
41512;SDS011;27244;59.940;30.280;2023-05-10T13:49:13;2.38;;;1.65;;
41512;SDS011;27244;59.940;30.280;2023-05-10T13:51:40;3.92;;;1.75;;
41512;SDS011;27244;59.940;30.280;2023-05-10T13:54:07;2.45;;;1.42;;
41512;SDS011;27244;59.940;30.280;2023-05-10T13:56:34;3.22;;;1.70;;
41512;SDS011;27244;59.940;30.280;2023-05-10T13:59:03;2.63;;;1.63;;
41512;SDS011;27244;59.940;30.280;2023-05-10T14:01:29;2.35;;;1.60;;
41512;SDS011;27244;59.940;30.280;2023-05-10T14:03:57;4.10;;;1.75;;
41512;SDS011;27244;59.940;30.280;2023-05-10T14:06:24;2.35;;;1.50;;
41512;SDS011;27244;59.940;30.280;2023-05-10T14:08:52;3.78;;;1.73;;
41512;SDS011;27244;59.940;30.280;2023-05-10T14:11:19;2.20;;;1.52;;
41512;SDS011;27244;59.940;30.280;2023-05-10T14:13:47;2.08;;;1.40;;
41512;SDS011;27244;59.940;30.280;2023-05-10T14:16:15;2.75;;;1.60;;
41512;SDS011;27244;59.940;30.280;2023-05-10T14:18:42;3.55;;;1.77;;
41512;SDS011;27244;59.940;30.280;2023-05-10T14:21:09;2.95;;;1.77;;
41512;SDS011;27244;59.940;30.280;2023-05-10T14:23:35;2.10;;;1.80;;
41512;SDS011;27244;59.940;30.280;2023-05-10T14:26:02;3.25;;;1.60;;
41512;SDS011;27244;59.940;30.280;2023-05-10T14:28:29;1.98;;;1.33;;
41512;SDS011;27244;59.940;30.280;2023-05-10T14:30:56;2.95;;;1.77;;
41512;SDS011;27244;59.940;30.280;2023-05-10T14:33:25;2.33;;;1.60;;
41512;SDS011;27244;59.940;30.280;2023-05-10T14:35:53;2.25;;;1.50;;
41512;SDS011;27244;59.940;30.280;2023-05-10T14:38:21;3.05;;;1.60;;
41512;SDS011;27244;59.940;30.280;2023-05-10T14:40:48;2.88;;;1.60;;
41512;SDS011;27244;59.940;30.280;2023-05-10T14:43:15;3.70;;;1.73;;
41512;SDS011;27244;59.940;30.280;2023-05-10T14:45:42;1.77;;;1.42;;
41512;SDS011;27244;59.940;30.280;2023-05-10T14:48:09;2.53;;;1.65;;
41512;SDS011;27244;59.940;30.280;2023-05-10T14:50:41;2.27;;;1.33;;
41512;SDS011;27244;59.940;30.280;2023-05-10T14:53:08;2.33;;;1.55;;
41512;SDS011;27244;59.940;30.280;2023-05-10T14:55:35;3.00;;;1.50;;
41512;SDS011;27244;59.940;30.280;2023-05-10T14:58:03;3.03;;;1.38;;
41512;SDS011;27244;59.940;30.280;2023-05-10T15:00:30;2.47;;;1.67;;
41512;SDS011;27244;59.940;30.280;2023-05-10T15:02:57;2.35;;;1.52;;